sensor_id;sensor_type;location;lat;lon;timestamp;pressure;altitude;pressure_sealevel;temperature;humidity
60676;BME280;46716;38.014;-7.874;2022-10-31T00:01:20;99911.06;;;16.83;100.00
60676;BME280;46716;38.014;-7.874;2022-10-31T00:03:22;99907.44;;;16.84;100.00
60676;BME280;46716;38.014;-7.874;2022-10-31T00:05:23;99872.09;;;16.69;100.00
60676;BME280;46716;38.014;-7.874;2022-10-31T00:07:24;99880.59;;;16.74;100.00
60676;BME280;46716;38.014;-7.874;2022-10-31T00:09:25;99867.84;;;16.66;100.00
60676;BME280;46716;38.014;-7.874;2022-10-31T00:11:26;99891.13;;;16.76;100.00
60676;BME280;46716;38.014;-7.874;2022-10-31T00:13:27;99864.75;;;16.60;100.00
60676;BME280;46716;38.014;-7.874;2022-10-31T00:15:28;99869.75;;;16.64;100.00
60676;BME280;46716;38.014;-7.874;2022-10-31T00:17:29;99872.63;;;16.61;100.00
60676;BME280;46716;38.014;-7.874;2022-10-31T00:19:30;99863.59;;;16.51;100.00
60676;BME280;46716;38.014;-7.874;2022-10-31T00:21:31;99853.47;;;16.43;100.00
60676;BME280;46716;38.014;-7.874;2022-10-31T00:23:35;99849.34;;;16.39;100.00
60676;BME280;46716;38.014;-7.874;2022-10-31T00:25:38;99855.53;;;16.39;100.00
60676;BME280;46716;38.014;-7.874;2022-10-31T00:27:39;99843.47;;;16.34;100.00
60676;BME280;46716;38.014;-7.874;2022-10-31T00:29:40;99848.06;;;16.31;100.00
60676;BME280;46716;38.014;-7.874;2022-10-31T00:31:41;99843.19;;;16.25;100.00
60676;BME280;46716;38.014;-7.874;2022-10-31T00:33:44;99857.44;;;16.37;100.00
60676;BME280;46716;38.014;-7.874;2022-10-31T00:35:51;99848.94;;;16.32;100.00
60676;BME280;46716;38.014;-7.874;2022-10-31T00:37:52;99837.84;;;16.25;100.00
60676;BME280;46716;38.014;-7.874;2022-10-31T00:39:53;99857.44;;;16.37;100.00
60676;BME280;46716;38.014;-7.874;2022-10-31T00:41:54;99847.44;;;16.41;100.00
60676;BME280;46716;38.014;-7.874;2022-10-31T00:43:56;99837.91;;;16.37;100.00
60676;BME280;46716;38.014;-7.874;2022-10-31T00:45:57;99849.72;;;16.46;100.00
60676;BME280;46716;38.014;-7.874;2022-10-31T00:47:59;99836.97;;;16.38;100.00
60676;BME280;46716;38.014;-7.874;2022-10-31T00:50:00;99839.31;;;16.42;100.00
60676;BME280;46716;38.014;-7.874;2022-10-31T00:52:01;99833.13;;;16.42;100.00
60676;BME280;46716;38.014;-7.874;2022-10-31T00:54:02;99847.06;;;16.46;100.00
60676;BME280;46716;38.014;-7.874;2022-10-31T00:56:03;99830.03;;;16.35;100.00
60676;BME280;46716;38.014;-7.874;2022-10-31T00:58:05;99836.66;;;16.42;100.00
60676;BME280;46716;38.014;-7.874;2022-10-31T01:00:07;99842.81;;;16.43;100.00
60676;BME280;46716;38.014;-7.874;2022-10-31T01:02:08;99836.75;;;16.41;100.00
60676;BME280;46716;38.014;-7.874;2022-10-31T01:04:09;99831.88;;;16.35;100.00
60676;BME280;46716;38.014;-7.874;2022-10-31T01:06:12;99829.09;;;16.36;100.00
60676;BME280;46716;38.014;-7.874;2022-10-31T01:08:13;99822.28;;;16.32;100.00
60676;BME280;46716;38.014;-7.874;2022-10-31T01:10:14;99831.44;;;16.41;100.00
60676;BME280;46716;38.014;-7.874;2022-10-31T01:12:17;99824.53;;;16.25;100.00
60676;BME280;46716;38.014;-7.874;2022-10-31T01:14:18;99830.72;;;16.26;100.00
60676;BME280;46716;38.014;-7.874;2022-10-31T01:16:22;99829.34;;;16.20;100.00
60676;BME280;46716;38.014;-7.874;2022-10-31T01:18:24;99844.25;;;16.23;100.00
60676;BME280;46716;38.014;-7.874;2022-10-31T01:20:25;99852.78;;;16.15;100.00
60676;BME280;46716;38.014;-7.874;2022-10-31T01:22:27;99835.94;;;16.01;100.00
60676;BME280;46716;38.014;-7.874;2022-10-31T01:24:29;99849.25;;;16.01;100.00
60676;BME280;46716;38.014;-7.874;2022-10-31T01:26:31;99850.03;;;16.03;100.00
60676;BME280;46716;38.014;-7.874;2022-10-31T01:28:32;99858.53;;;16.09;100.00
60676;BME280;46716;38.014;-7.874;2022-10-31T01:30:33;99839.59;;;16.00;100.00
60676;BME280;46716;38.014;-7.874;2022-10-31T01:32:34;99837.03;;;15.99;100.00
60676;BME280;46716;38.014;-7.874;2022-10-31T01:34:35;99824.31;;;15.89;100.00
60676;BME280;46716;38.014;-7.874;2022-10-31T01:36:37;99846.25;;;15.93;100.00
60676;BME280;46716;38.014;-7.874;2022-10-31T01:38:39;99834.44;;;15.84;100.00
60676;BME280;46716;38.014;-7.874;2022-10-31T01:40:40;99837.09;;;15.84;100.00
60676;BME280;46716;38.014;-7.874;2022-10-31T01:42:41;99839.78;;;15.84;100.00
60676;BME280;46716;38.014;-7.874;2022-10-31T01:46:46;99852.63;;;15.90;100.00
60676;BME280;46716;38.014;-7.874;2022-10-31T01:48:50;99841.56;;;15.84;100.00
60676;BME280;46716;38.014;-7.874;2022-10-31T01:50:53;99845.72;;;15.75;100.00
60676;BME280;46716;38.014;-7.874;2022-10-31T01:52:56;99830.16;;;15.68;100.00
60676;BME280;46716;38.014;-7.874;2022-10-31T01:55:11;99833.38;;;15.74;100.00
60676;BME280;46716;38.014;-7.874;2022-10-31T01:57:14;99829.75;;;15.75;100.00
60676;BME280;46716;38.014;-7.874;2022-10-31T01:59:18;99825.50;;;15.72;100.00
60676;BME280;46716;38.014;-7.874;2022-10-31T02:01:20;99829.66;;;15.76;100.00
60676;BME280;46716;38.014;-7.874;2022-10-31T02:03:21;99823.78;;;15.71;100.00
60676;BME280;46716;38.014;-7.874;2022-10-31T02:05:25;99841.56;;;15.84;100.00
60676;BME280;46716;38.014;-7.874;2022-10-31T02:07:34;99836.34;;;15.82;100.00
60676;BME280;46716;38.014;-7.874;2022-10-31T02:09:38;99818.13;;;15.76;100.00
60676;BME280;46716;38.014;-7.874;2022-10-31T02:11:41;99814.84;;;15.72;100.00
60676;BME280;46716;38.014;-7.874;2022-10-31T02:13:46;99815.06;;;15.69;100.00
60676;BME280;46716;38.014;-7.874;2022-10-31T02:15:52;99843.56;;;15.80;100.00
60676;BME280;46716;38.014;-7.874;2022-10-31T02:17:53;99840.19;;;15.78;100.00
60676;BME280;46716;38.014;-7.874;2022-10-31T02:22:40;99835.50;;;15.81;100.00
60676;BME280;46716;38.014;-7.874;2022-10-31T02:32:05;99843.16;;;15.86;100.00
60676;BME280;46716;38.014;-7.874;2022-10-31T02:34:21;99842.53;;;15.96;100.00
60676;BME280;46716;38.014;-7.874;2022-10-31T02:36:42;99832.31;;;15.89;100.00
60676;BME280;46716;38.014;-7.874;2022-10-31T02:41:19;99822.44;;;16.04;100.00
60676;BME280;46716;38.014;-7.874;2022-10-31T02:43:42;99790.34;;;15.93;100.00
60676;BME280;46716;38.014;-7.874;2022-10-31T02:48:41;99810.41;;;15.99;100.00
60676;BME280;46716;38.014;-7.874;2022-10-31T02:50:52;99804.81;;;15.89;100.00
60676;BME280;46716;38.014;-7.874;2022-10-31T02:52:54;99808.66;;;15.85;100.00
60676;BME280;46716;38.014;-7.874;2022-10-31T02:54:56;99826.88;;;15.91;100.00
60676;BME280;46716;38.014;-7.874;2022-10-31T02:57:02;99829.53;;;15.91;100.00
60676;BME280;46716;38.014;-7.874;2022-10-31T02:59:05;99809.19;;;15.77;100.00
60676;BME280;46716;38.014;-7.874;2022-10-31T03:06:20;99824.00;;;15.81;100.00
60676;BME280;46716;38.014;-7.874;2022-10-31T03:10:51;99844.88;;;15.87;100.00
60676;BME280;46716;38.014;-7.874;2022-10-31T03:15:40;99834.22;;;15.74;100.00
60676;BME280;46716;38.014;-7.874;2022-10-31T03:17:53;99839.44;;;15.76;100.00
60676;BME280;46716;38.014;-7.874;2022-10-31T03:19:56;99846.44;;;15.77;100.00
60676;BME280;46716;38.014;-7.874;2022-10-31T03:22:15;99829.97;;;15.72;100.00
60676;BME280;46716;38.014;-7.874;2022-10-31T03:24:19;99830.94;;;15.71;100.00
60676;BME280;46716;38.014;-7.874;2022-10-31T03:26:22;99835.69;;;15.65;100.00
60676;BME280;46716;38.014;-7.874;2022-10-31T03:28:28;99834.88;;;15.65;100.00
60676;BME280;46716;38.014;-7.874;2022-10-31T03:30:33;99831.56;;;15.61;100.00
60676;BME280;46716;38.014;-7.874;2022-10-31T03:32:56;99843.56;;;15.67;100.00
60676;BME280;46716;38.014;-7.874;2022-10-31T03:35:01;99838.78;;;15.59;100.00
60676;BME280;46716;38.014;-7.874;2022-10-31T03:37:07;99836.31;;;15.56;100.00
60676;BME280;46716;38.014;-7.874;2022-10-31T03:39:13;99840.50;;;15.60;100.00
60676;BME280;46716;38.014;-7.874;2022-10-31T03:41:20;99837.84;;;15.60;100.00
60676;BME280;46716;38.014;-7.874;2022-10-31T03:43:28;99835.91;;;15.62;100.00
60676;BME280;46716;38.014;-7.874;2022-10-31T03:45:32;99842.94;;;15.63;100.00
60676;BME280;46716;38.014;-7.874;2022-10-31T03:47:35;99825.47;;;15.59;100.00
60676;BME280;46716;38.014;-7.874;2022-10-31T03:49:38;99828.22;;;15.58;100.00
60676;BME280;46716;38.014;-7.874;2022-10-31T03:51:47;99816.75;;;15.57;100.00
60676;BME280;46716;38.014;-7.874;2022-10-31T03:56:09;99808.44;;;15.49;100.00
60676;BME280;46716;38.014;-7.874;2022-10-31T03:58:22;99823.56;;;15.48;100.00
60676;BME280;46716;38.014;-7.874;2022-10-31T04:00:24;99825.34;;;15.48;100.00
60676;BME280;46716;38.014;-7.874;2022-10-31T04:02:31;99818.84;;;15.39;100.00
60676;BME280;46716;38.014;-7.874;2022-10-31T04:04:34;99824.28;;;15.37;100.00
60676;BME280;46716;38.014;-7.874;2022-10-31T04:06:38;99820.44;;;15.41;100.00
60676;BME280;46716;38.014;-7.874;2022-10-31T04:08:45;99829.28;;;15.42;100.00
60676;BME280;46716;38.014;-7.874;2022-10-31T04:10:52;99822.47;;;15.38;100.00
60676;BME280;46716;38.014;-7.874;2022-10-31T04:12:59;99822.69;;;15.48;100.00
60676;BME280;46716;38.014;-7.874;2022-10-31T04:15:08;99803.84;;;15.38;100.00
60676;BME280;46716;38.014;-7.874;2022-10-31T04:17:16;99828.69;;;15.51;100.00
60676;BME280;46716;38.014;-7.874;2022-10-31T04:19:19;99835.38;;;15.57;100.00
60676;BME280;46716;38.014;-7.874;2022-10-31T04:21:27;99827.81;;;15.51;100.00
60676;BME280;46716;38.014;-7.874;2022-10-31T04:23:30;99833.13;;;15.51;100.00
60676;BME280;46716;38.014;-7.874;2022-10-31T04:25:33;99845.16;;;15.57;100.00
60676;BME280;46716;38.014;-7.874;2022-10-31T04:27:34;99833.13;;;15.51;100.00
60676;BME280;46716;38.014;-7.874;2022-10-31T04:29:35;99840.69;;;15.57;100.00
60676;BME280;46716;38.014;-7.874;2022-10-31T04:31:36;99842.94;;;15.63;100.00
60676;BME280;46716;38.014;-7.874;2022-10-31T04:33:37;99847.81;;;15.70;100.00
60676;BME280;46716;38.014;-7.874;2022-10-31T04:35:38;99858.28;;;15.73;100.00
60676;BME280;46716;38.014;-7.874;2022-10-31T04:37:39;99879.59;;;15.86;100.00
60676;BME280;46716;38.014;-7.874;2022-10-31T04:39:40;99874.91;;;15.89;100.00
60676;BME280;46716;38.014;-7.874;2022-10-31T04:42:16;99853.41;;;15.79;100.00
60676;BME280;46716;38.014;-7.874;2022-10-31T04:44:18;99869.56;;;15.89;100.00
60676;BME280;46716;38.014;-7.874;2022-10-31T04:46:23;99858.91;;;15.89;100.00
60676;BME280;46716;38.014;-7.874;2022-10-31T04:48:24;99870.78;;;15.98;100.00
60676;BME280;46716;38.014;-7.874;2022-10-31T04:50:25;99852.00;;;15.87;100.00
60676;BME280;46716;38.014;-7.874;2022-10-31T04:52:26;99864.16;;;15.91;100.00
60676;BME280;46716;38.014;-7.874;2022-10-31T04:54:28;99871.16;;;15.92;100.00
60676;BME280;46716;38.014;-7.874;2022-10-31T04:56:29;99878.56;;;16.01;100.00
60676;BME280;46716;38.014;-7.874;2022-10-31T04:58:33;99870.16;;;16.08;100.00
60676;BME280;46716;38.014;-7.874;2022-10-31T05:00:34;99881.09;;;16.16;100.00
60676;BME280;46716;38.014;-7.874;2022-10-31T05:02:43;99880.47;;;16.12;100.00
60676;BME280;46716;38.014;-7.874;2022-10-31T05:04:44;99850.84;;;16.04;100.00
60676;BME280;46716;38.014;-7.874;2022-10-31T05:06:45;99853.41;;;16.05;100.00
60676;BME280;46716;38.014;-7.874;2022-10-31T05:08:46;99866.81;;;16.04;100.00
60676;BME280;46716;38.014;-7.874;2022-10-31T05:10:47;99856.63;;;15.98;100.00
60676;BME280;46716;38.014;-7.874;2022-10-31T05:12:53;99867.28;;;15.98;100.00
60676;BME280;46716;38.014;-7.874;2022-10-31T05:15:22;99863.38;;;15.89;100.00
60676;BME280;46716;38.014;-7.874;2022-10-31T05:17:42;99856.69;;;15.83;100.00
60676;BME280;46716;38.014;-7.874;2022-10-31T05:19:52;99856.56;;;15.85;100.00
60676;BME280;46716;38.014;-7.874;2022-10-31T05:22:11;99856.78;;;15.81;100.00
60676;BME280;46716;38.014;-7.874;2022-10-31T05:24:12;99869.06;;;15.84;100.00
60676;BME280;46716;38.014;-7.874;2022-10-31T05:26:17;99843.38;;;15.83;100.00
60676;BME280;46716;38.014;-7.874;2022-10-31T05:28:18;99863.53;;;16.13;100.00
60676;BME280;46716;38.014;-7.874;2022-10-31T05:30:23;99865.84;;;16.31;100.00
60676;BME280;46716;38.014;-7.874;2022-10-31T05:32:24;99866.59;;;16.46;100.00
60676;BME280;46716;38.014;-7.874;2022-10-31T05:34:43;99874.31;;;16.62;100.00
60676;BME280;46716;38.014;-7.874;2022-10-31T05:37:11;99884.00;;;16.76;100.00
60676;BME280;46716;38.014;-7.874;2022-10-31T05:39:12;99871.66;;;16.75;100.00
60676;BME280;46716;38.014;-7.874;2022-10-31T05:41:16;99888.69;;;16.86;100.00
60676;BME280;46716;38.014;-7.874;2022-10-31T05:43:20;99879.47;;;16.90;100.00
60676;BME280;46716;38.014;-7.874;2022-10-31T05:45:21;99892.16;;;16.99;100.00
60676;BME280;46716;38.014;-7.874;2022-10-31T05:47:31;99881.72;;;16.96;100.00
60676;BME280;46716;38.014;-7.874;2022-10-31T05:49:50;99866.66;;;16.95;100.00
60676;BME280;46716;38.014;-7.874;2022-10-31T05:52:10;99862.94;;;16.98;100.00
60676;BME280;46716;38.014;-7.874;2022-10-31T05:54:18;99872.94;;;17.07;100.00
60676;BME280;46716;38.014;-7.874;2022-10-31T05:56:20;99874.66;;;17.08;100.00
60676;BME280;46716;38.014;-7.874;2022-10-31T05:58:21;99873.56;;;17.11;100.00
60676;BME280;46716;38.014;-7.874;2022-10-31T06:00:36;99870.03;;;17.10;100.00
60676;BME280;46716;38.014;-7.874;2022-10-31T06:02:41;99868.94;;;17.13;100.00
60676;BME280;46716;38.014;-7.874;2022-10-31T06:05:00;99864.13;;;17.18;100.00
60676;BME280;46716;38.014;-7.874;2022-10-31T06:07:02;99860.72;;;17.16;100.00
60676;BME280;46716;38.014;-7.874;2022-10-31T06:09:03;99846.91;;;17.11;100.00
60676;BME280;46716;38.014;-7.874;2022-10-31T06:11:07;99858.47;;;17.23;100.00
60676;BME280;46716;38.014;-7.874;2022-10-31T06:13:40;99862.59;;;17.27;100.00
60676;BME280;46716;38.014;-7.874;2022-10-31T06:15:50;99870.16;;;17.33;100.00
60676;BME280;46716;38.014;-7.874;2022-10-31T06:18:05;99861.69;;;17.39;100.00
60676;BME280;46716;38.014;-7.874;2022-10-31T06:20:24;99861.81;;;17.38;100.00
60676;BME280;46716;38.014;-7.874;2022-10-31T06:22:32;99859.16;;;17.49;100.00
60676;BME280;46716;38.014;-7.874;2022-10-31T06:24:34;99856.72;;;17.46;100.00
60676;BME280;46716;38.014;-7.874;2022-10-31T06:26:50;99857.25;;;17.51;100.00
60676;BME280;46716;38.014;-7.874;2022-10-31T06:28:51;99873.63;;;17.58;100.00
60676;BME280;46716;38.014;-7.874;2022-10-31T06:31:09;99846.78;;;17.48;100.00
60676;BME280;46716;38.014;-7.874;2022-10-31T06:33:10;99865.72;;;17.56;100.00
60676;BME280;46716;38.014;-7.874;2022-10-31T06:35:16;99881.91;;;17.66;100.00
60676;BME280;46716;38.014;-7.874;2022-10-31T06:37:17;99858.06;;;17.52;100.00
60676;BME280;46716;38.014;-7.874;2022-10-31T06:39:22;99877.25;;;17.57;100.00
60676;BME280;46716;38.014;-7.874;2022-10-31T06:41:23;99886.63;;;17.63;100.00
60676;BME280;46716;38.014;-7.874;2022-10-31T06:43:24;99875.56;;;17.56;100.00
60676;BME280;46716;38.014;-7.874;2022-10-31T06:45:40;99889.19;;;17.64;100.00
60676;BME280;46716;38.014;-7.874;2022-10-31T06:48:04;99887.31;;;17.53;100.00
60676;BME280;46716;38.014;-7.874;2022-10-31T06:50:10;99899.34;;;17.59;100.00
60676;BME280;46716;38.014;-7.874;2022-10-31T06:52:11;99905.66;;;17.58;100.00
60676;BME280;46716;38.014;-7.874;2022-10-31T06:54:12;99895.94;;;17.57;100.00
60676;BME280;46716;38.014;-7.874;2022-10-31T06:56:13;99889.03;;;17.54;100.00
60676;BME280;46716;38.014;-7.874;2022-10-31T06:58:19;99907.00;;;17.64;100.00
60676;BME280;46716;38.014;-7.874;2022-10-31T07:00:23;99917.72;;;17.75;100.00
60676;BME280;46716;38.014;-7.874;2022-10-31T07:02:31;99880.94;;;17.67;100.00
60676;BME280;46716;38.014;-7.874;2022-10-31T07:04:32;99903.78;;;17.83;100.00
60676;BME280;46716;38.014;-7.874;2022-10-31T07:06:33;99912.75;;;17.82;100.00
60676;BME280;46716;38.014;-7.874;2022-10-31T07:08:34;99917.66;;;17.88;100.00
60676;BME280;46716;38.014;-7.874;2022-10-31T07:10:36;99916.91;;;17.86;100.00
60676;BME280;46716;38.014;-7.874;2022-10-31T07:12:38;99910.31;;;17.79;100.00
60676;BME280;46716;38.014;-7.874;2022-10-31T07:14:39;99902.28;;;17.67;100.00
60676;BME280;46716;38.014;-7.874;2022-10-31T07:16:40;99922.34;;;17.73;100.00
60676;BME280;46716;38.014;-7.874;2022-10-31T07:18:41;99909.56;;;17.65;100.00
60676;BME280;46716;38.014;-7.874;2022-10-31T07:20:43;99922.78;;;17.67;100.00
60676;BME280;46716;38.014;-7.874;2022-10-31T07:22:44;99928.25;;;17.65;100.00
60676;BME280;46716;38.014;-7.874;2022-10-31T07:24:46;99943.69;;;17.73;100.00
60676;BME280;46716;38.014;-7.874;2022-10-31T07:26:47;99940.53;;;17.68;100.00
60676;BME280;46716;38.014;-7.874;2022-10-31T07:28:49;99940.38;;;17.69;100.00
60676;BME280;46716;38.014;-7.874;2022-10-31T07:30:56;99949.78;;;17.75;100.00
60676;BME280;46716;38.014;-7.874;2022-10-31T07:32:57;99936.47;;;17.62;100.00
60676;BME280;46716;38.014;-7.874;2022-10-31T07:35:10;99954.38;;;17.73;100.00
60676;BME280;46716;38.014;-7.874;2022-10-31T07:37:22;99957.50;;;17.67;100.00
60676;BME280;46716;38.014;-7.874;2022-10-31T07:39:23;99963.25;;;17.74;100.00
60676;BME280;46716;38.014;-7.874;2022-10-31T07:41:24;99971.03;;;17.77;100.00
60676;BME280;46716;38.014;-7.874;2022-10-31T07:43:25;99959.06;;;17.69;100.00
60676;BME280;46716;38.014;-7.874;2022-10-31T07:45:53;99972.31;;;17.71;100.00
60676;BME280;46716;38.014;-7.874;2022-10-31T07:48:12;99970.34;;;17.62;100.00
60676;BME280;46716;38.014;-7.874;2022-10-31T07:50:33;99976.25;;;17.54;100.00
60676;BME280;46716;38.014;-7.874;2022-10-31T07:53:10;99979.16;;;17.51;100.00
60676;BME280;46716;38.014;-7.874;2022-10-31T07:55:23;99998.47;;;17.54;100.00
60676;BME280;46716;38.014;-7.874;2022-10-31T07:57:24;99994.19;;;17.52;100.00
60676;BME280;46716;38.014;-7.874;2022-10-31T07:59:25;100025.50;;;17.50;100.00
60676;BME280;46716;38.014;-7.874;2022-10-31T08:01:28;100020.16;;;17.50;100.00
60676;BME280;46716;38.014;-7.874;2022-10-31T08:03:49;100009.69;;;17.47;100.00
60676;BME280;46716;38.014;-7.874;2022-10-31T08:06:08;99994.31;;;17.50;100.00
60676;BME280;46716;38.014;-7.874;2022-10-31T08:08:32;99991.41;;;17.53;100.00
60676;BME280;46716;38.014;-7.874;2022-10-31T08:10:34;99987.22;;;17.38;100.00
60676;BME280;46716;38.014;-7.874;2022-10-31T08:12:35;100010.69;;;17.46;100.00
60676;BME280;46716;38.014;-7.874;2022-10-31T08:14:38;100008.84;;;17.46;100.00
60676;BME280;46716;38.014;-7.874;2022-10-31T08:16:39;100020.38;;;17.47;100.00
60676;BME280;46716;38.014;-7.874;2022-10-31T08:18:41;100013.03;;;17.37;100.00
60676;BME280;46716;38.014;-7.874;2022-10-31T08:20:45;100030.31;;;17.44;100.00
60676;BME280;46716;38.014;-7.874;2022-10-31T08:22:57;100031.50;;;17.40;100.00
60676;BME280;46716;38.014;-7.874;2022-10-31T08:25:00;100041.09;;;17.43;100.00
60676;BME280;46716;38.014;-7.874;2022-10-31T08:27:04;100051.53;;;17.46;100.00
60676;BME280;46716;38.014;-7.874;2022-10-31T08:29:06;100061.03;;;17.50;100.00
60676;BME280;46716;38.014;-7.874;2022-10-31T08:31:10;100051.53;;;17.46;100.00
60676;BME280;46716;38.014;-7.874;2022-10-31T08:33:16;100066.13;;;17.53;100.00
60676;BME280;46716;38.014;-7.874;2022-10-31T08:35:36;100059.44;;;17.48;100.00
60676;BME280;46716;38.014;-7.874;2022-10-31T08:38:11;100085.47;;;17.57;100.00
60676;BME280;46716;38.014;-7.874;2022-10-31T08:40:13;100088.84;;;17.59;100.00
60676;BME280;46716;38.014;-7.874;2022-10-31T08:42:14;100095.50;;;17.53;100.00
60676;BME280;46716;38.014;-7.874;2022-10-31T08:44:16;100110.88;;;17.63;100.00
60676;BME280;46716;38.014;-7.874;2022-10-31T08:46:18;100122.84;;;17.57;100.00
60676;BME280;46716;38.014;-7.874;2022-10-31T08:48:19;100131.13;;;17.65;100.00
60676;BME280;46716;38.014;-7.874;2022-10-31T08:50:20;100105.41;;;17.64;100.00
60676;BME280;46716;38.014;-7.874;2022-10-31T08:52:25;100109.16;;;17.62;100.00
60676;BME280;46716;38.014;-7.874;2022-10-31T08:54:32;100093.53;;;17.68;100.00
60676;BME280;46716;38.014;-7.874;2022-10-31T08:56:54;100083.72;;;17.69;100.00
60676;BME280;46716;38.014;-7.874;2022-10-31T08:59:06;100073.59;;;17.61;100.00
60676;BME280;46716;38.014;-7.874;2022-10-31T09:01:37;100092.63;;;17.56;100.00
60676;BME280;46716;38.014;-7.874;2022-10-31T09:03:40;100092.00;;;17.53;100.00
60676;BME280;46716;38.014;-7.874;2022-10-31T09:05:49;100116.13;;;17.51;100.00
60676;BME280;46716;38.014;-7.874;2022-10-31T09:10:06;100122.00;;;17.43;100.00
60676;BME280;46716;38.014;-7.874;2022-10-31T09:12:10;100144.41;;;17.54;100.00
60676;BME280;46716;38.014;-7.874;2022-10-31T09:14:30;100141.41;;;17.59;100.00
60676;BME280;46716;38.014;-7.874;2022-10-31T09:16:52;100139.47;;;17.61;100.00
60676;BME280;46716;38.014;-7.874;2022-10-31T09:18:58;100139.56;;;17.59;100.00
60676;BME280;46716;38.014;-7.874;2022-10-31T09:20:59;100154.44;;;17.63;100.00
60676;BME280;46716;38.014;-7.874;2022-10-31T09:23:04;100129.56;;;17.63;100.00
60676;BME280;46716;38.014;-7.874;2022-10-31T09:25:08;100122.06;;;17.68;100.00
60676;BME280;46716;38.014;-7.874;2022-10-31T09:27:12;100125.56;;;17.68;100.00
60676;BME280;46716;38.014;-7.874;2022-10-31T09:29:18;100138.09;;;17.68;100.00
60676;BME280;46716;38.014;-7.874;2022-10-31T09:32:10;100141.38;;;17.72;100.00
60676;BME280;46716;38.014;-7.874;2022-10-31T09:34:27;100129.00;;;17.70;100.00
60676;BME280;46716;38.014;-7.874;2022-10-31T09:36:41;100137.28;;;17.79;100.00
60676;BME280;46716;38.014;-7.874;2022-10-31T09:38:56;100114.84;;;17.81;100.00
60676;BME280;46716;38.014;-7.874;2022-10-31T09:41:24;100113.91;;;17.82;100.00
60676;BME280;46716;38.014;-7.874;2022-10-31T09:52:18;100107.41;;;17.98;100.00
60676;BME280;46716;38.014;-7.874;2022-10-31T09:54:40;100079.97;;;17.96;100.00
60676;BME280;46716;38.014;-7.874;2022-10-31T09:56:44;100082.44;;;17.99;100.00
60676;BME280;46716;38.014;-7.874;2022-10-31T10:05:13;100057.53;;;17.99;100.00
60676;BME280;46716;38.014;-7.874;2022-10-31T10:19:50;100137.63;;;18.12;100.00
60676;BME280;46716;38.014;-7.874;2022-10-31T10:22:10;100129.50;;;18.13;100.00
60676;BME280;46716;38.014;-7.874;2022-10-31T10:26:40;100108.78;;;18.04;100.00
60676;BME280;46716;38.014;-7.874;2022-10-31T10:28:57;100104.50;;;18.14;100.00
60676;BME280;46716;38.014;-7.874;2022-10-31T10:31:07;100085.06;;;18.12;100.00
60676;BME280;46716;38.014;-7.874;2022-10-31T10:33:42;100100.13;;;18.13;100.00
60676;BME280;46716;38.014;-7.874;2022-10-31T10:35:52;100084.19;;;18.12;100.00
60676;BME280;46716;38.014;-7.874;2022-10-31T10:38:10;100097.44;;;18.13;100.00
60676;BME280;46716;38.014;-7.874;2022-10-31T10:40:26;100097.31;;;18.15;100.00
60676;BME280;46716;38.014;-7.874;2022-10-31T10:42:41;100103.19;;;18.20;100.00
60676;BME280;46716;38.014;-7.874;2022-10-31T10:45:21;100101.47;;;18.19;100.00
60676;BME280;46716;38.014;-7.874;2022-10-31T10:47:42;100123.25;;;18.26;100.00
60676;BME280;46716;38.014;-7.874;2022-10-31T10:49:51;100153.66;;;18.36;100.00
60676;BME280;46716;38.014;-7.874;2022-10-31T10:54:46;100173.66;;;18.55;100.00
60676;BME280;46716;38.014;-7.874;2022-10-31T10:57:20;100171.72;;;18.57;100.00
60676;BME280;46716;38.014;-7.874;2022-10-31T10:59:51;100165.94;;;18.63;100.00
60676;BME280;46716;38.014;-7.874;2022-10-31T11:02:31;100122.50;;;18.60;100.00
60676;BME280;46716;38.014;-7.874;2022-10-31T11:04:35;100130.19;;;18.64;100.00
60676;BME280;46716;38.014;-7.874;2022-10-31T11:06:37;100132.63;;;18.67;100.00
60676;BME280;46716;38.014;-7.874;2022-10-31T11:08:38;100127.06;;;18.70;100.00
60676;BME280;46716;38.014;-7.874;2022-10-31T11:10:40;100148.22;;;18.74;100.00
60676;BME280;46716;38.014;-7.874;2022-10-31T11:13:21;100156.25;;;18.85;100.00
60676;BME280;46716;38.014;-7.874;2022-10-31T11:18:39;100162.81;;;18.92;100.00
60676;BME280;46716;38.014;-7.874;2022-10-31T11:21:21;100173.28;;;18.95;100.00
60676;BME280;46716;38.014;-7.874;2022-10-31T11:23:26;100144.63;;;18.98;100.00
60676;BME280;46716;38.014;-7.874;2022-10-31T11:25:27;100141.34;;;19.05;100.00
60676;BME280;46716;38.014;-7.874;2022-10-31T11:27:30;100144.66;;;19.09;100.00
60676;BME280;46716;38.014;-7.874;2022-10-31T11:29:30;100122.38;;;19.08;100.00
60676;BME280;46716;38.014;-7.874;2022-10-31T11:31:36;100131.38;;;19.19;100.00
60676;BME280;46716;38.014;-7.874;2022-10-31T11:34:00;100126.53;;;19.36;100.00
60676;BME280;46716;38.014;-7.874;2022-10-31T11:36:15;100103.75;;;19.41;100.00
60676;BME280;46716;38.014;-7.874;2022-10-31T11:38:19;100096.97;;;19.49;100.00
60676;BME280;46716;38.014;-7.874;2022-10-31T11:43:32;100111.63;;;19.77;100.00
60676;BME280;46716;38.014;-7.874;2022-10-31T11:50:08;100111.34;;;20.03;100.00
60676;BME280;46716;38.014;-7.874;2022-10-31T11:56:13;100101.56;;;20.14;100.00
60676;BME280;46716;38.014;-7.874;2022-10-31T11:58:26;100092.16;;;20.19;100.00
60676;BME280;46716;38.014;-7.874;2022-10-31T12:00:28;100102.56;;;20.34;100.00
60676;BME280;46716;38.014;-7.874;2022-10-31T12:02:30;100068.84;;;20.31;100.00
60676;BME280;46716;38.014;-7.874;2022-10-31T12:04:45;100091.69;;;20.47;100.00
60676;BME280;46716;38.014;-7.874;2022-10-31T12:07:24;100100.38;;;20.60;100.00
60676;BME280;46716;38.014;-7.874;2022-10-31T12:09:37;100113.25;;;20.67;100.00
60676;BME280;46716;38.014;-7.874;2022-10-31T12:14:33;100123.41;;;20.63;100.00
60676;BME280;46716;38.014;-7.874;2022-10-31T12:30:40;100145.78;;;19.96;100.00
60676;BME280;46716;38.014;-7.874;2022-10-31T12:42:50;100090.03;;;20.02;100.00